KCMH Airport Diagram

We have created a template for each of the higher traffic airports in the vZID airspace. They include KCMH, KCRW, KCVG, KDAY, KIND, KLEX and KSDF. You wil find usefull information including the airport diagram, weather, and specific airport procedures.

KCMH Weather

[Source: ADDS]
METAR
KCMH 261551Z 05003KT 10SM FEW028 SCT100 SCT200 24/17 A3017 RMK AO2 SLP210 T02390167 =
TAF
KCMH 261135Z 2612/2712 14003KT P6SM FEW250 FM262000 18006KT P6SM FEW250 FM270900 VRB02KT P6SM SCT045 BKN200 =
JSN Epic template designed by JoomlaShine.com